Time,TemperatureF,DewpointF,PressureIn,WindDirection,WindDirectionDegrees,WindSpeedMPH,WindSpeedGustMPH,Humidity,HourlyPrecipIn,Conditions,Clouds,dailyrainin,SoftwareType,DateUTC
2013-03-03 00:01:00,27.0,20.0,-100.00,SW,220,6.0,9.0,75,0.00,,,-99.99,,2013-03-03 07:01:00,
2013-03-03 00:11:00,26.0,19.0,-100.00,SW,220,6.0,9.0,75,0.00,,,-99.99,,2013-03-03 07:11:00,
2013-03-03 00:21:00,27.0,20.0,-100.00,WSW,255,4.0,8.0,76,0.00,,,-99.99,,2013-03-03 07:21:00,
2013-03-03 00:31:00,27.0,20.0,-100.00,SW,230,4.0,8.0,75,0.00,,,-99.99,,2013-03-03 07:31:00,
2013-03-03 00:42:00,26.0,19.0,-100.00,SW,215,7.0,9.0,76,0.00,,,-99.99,,2013-03-03 07:42:00,
2013-03-03 00:51:00,26.0,20.0,-100.00,SW,220,7.0,10.0,77,0.00,,,-99.99,,2013-03-03 07:51:00,
2013-03-03 01:01:00,27.0,20.0,-100.00,WSW,245,6.0,10.0,76,0.00,,,-99.99,,2013-03-03 08:01:00,
2013-03-03 01:11:00,27.0,21.0,-100.00,SW,215,7.0,11.0,75,0.00,,,-99.99,,2013-03-03 08:11:00,
2013-03-03 01:21:00,28.0,21.0,-100.00,West,275,6.0,10.0,74,0.00,,,-99.99,,2013-03-03 08:21:00,
2013-03-03 01:31:00,28.0,21.0,-100.00,WSW,245,7.0,10.0,74,0.00,,,-99.99,,2013-03-03 08:31:00,
2013-03-03 01:41:00,29.0,21.0,-100.00,SW,230,7.0,11.0,73,0.00,,,-99.99,,2013-03-03 08:41:00,
2013-03-03 01:53:00,29.0,22.0,-100.00,SW,235,7.0,11.0,73,0.00,,,-99.99,,2013-03-03 08:53:00,
2013-03-03 02:01:00,29.0,22.0,-100.00,SW,215,9.0,13.0,73,0.00,,,-99.99,,2013-03-03 09:01:00,
2013-03-03 02:11:00,29.0,22.0,-100.00,SW,230,8.0,14.0,72,0.00,,,-99.99,,2013-03-03 09:11:00,
2013-03-03 02:21:00,29.0,21.0,-100.00,SW,235,7.0,16.0,71,0.00,,,-99.99,,2013-03-03 09:21:00,
2013-03-03 02:32:00,29.0,21.0,-100.00,SW,215,10.0,17.0,71,0.00,,,-99.99,,2013-03-03 09:32:00,
2013-03-03 02:41:00,29.0,21.0,-100.00,SW,225,9.0,14.0,71,0.00,,,-99.99,,2013-03-03 09:41:00,
2013-03-03 02:51:00,28.0,20.0,-100.00,SW,230,6.0,12.0,71,0.00,,,-99.99,,2013-03-03 09:51:00,
2013-03-03 03:01:00,28.0,20.0,-100.00,WSW,250,6.0,12.0,72,0.00,,,-99.99,,2013-03-03 10:01:00,
2013-03-03 03:11:00,28.0,20.0,-100.00,WSW,240,7.0,11.0,72,0.00,,,-99.99,,2013-03-03 10:11:00,
2013-03-03 03:21:00,28.0,20.0,-100.00,SW,235,6.0,12.0,71,0.00,,,-99.99,,2013-03-03 10:21:00,
2013-03-03 03:32:00,28.0,20.0,-100.00,SW,235,7.0,11.0,70,0.00,,,-99.99,,2013-03-03 10:32:00,
2013-03-03 03:42:00,28.0,20.0,-100.00,SW,230,7.0,11.0,70,0.00,,,-99.99,,2013-03-03 10:42:00,
2013-03-03 03:52:00,27.0,19.0,-100.00,SW,225,5.0,8.0,71,0.00,,,-99.99,,2013-03-03 10:52:00,
2013-03-03 04:01:00,26.0,19.0,-100.00,WSW,250,6.0,11.0,73,0.00,,,-99.99,,2013-03-03 11:01:00,
2013-03-03 04:11:00,26.0,19.0,-100.00,SW,230,6.0,9.0,75,0.00,,,-99.99,,2013-03-03 11:11:00,
2013-03-03 04:21:00,26.0,19.0,-100.00,WSW,245,6.0,11.0,74,0.00,,,-99.99,,2013-03-03 11:21:00,
2013-03-03 04:32:00,27.0,19.0,-100.00,SW,225,7.0,14.0,72,0.00,,,-99.99,,2013-03-03 11:32:00,
2013-03-03 04:42:00,26.0,19.0,-100.00,WSW,240,5.0,10.0,74,0.00,,,-99.99,,2013-03-03 11:42:00,
2013-03-03 04:52:00,26.0,19.0,-100.00,WSW,250,4.0,11.0,74,0.00,,,-99.99,,2013-03-03 11:52:00,
2013-03-03 05:01:00,26.0,19.0,-100.00,SW,225,7.0,12.0,74,0.00,,,-99.99,,2013-03-03 12:01:00,
2013-03-03 05:11:00,26.0,19.0,-100.00,WSW,240,6.0,10.0,73,0.00,,,-99.99,,2013-03-03 12:11:00,
2013-03-03 05:21:00,27.0,19.0,-100.00,SW,235,7.0,14.0,71,0.00,,,-99.99,,2013-03-03 12:21:00,
2013-03-03 05:32:00,27.0,19.0,-100.00,WSW,245,1.0,11.0,70,0.00,,,-99.99,,2013-03-03 12:32:00,
2013-03-03 05:42:00,25.0,18.0,-100.00,SW,215,2.0,7.0,72,0.00,,,-99.99,,2013-03-03 12:42:00,
2013-03-03 05:52:00,25.0,18.0,-100.00,SW,225,7.0,14.0,73,0.00,,,-99.99,,2013-03-03 12:52:00,
2013-03-03 06:01:00,26.0,19.0,-100.00,SSW,210,6.0,16.0,71,0.00,,,-99.99,,2013-03-03 13:01:00,
2013-03-03 06:11:00,26.0,18.0,-100.00,SSW,200,8.0,15.0,70,0.00,,,-99.99,,2013-03-03 13:11:00,
2013-03-03 06:21:00,28.0,18.0,-100.00,SW,220,13.0,22.0,67,0.00,,,-99.99,,2013-03-03 13:21:00,
2013-03-03 06:32:00,28.0,18.0,-100.00,SW,225,14.0,22.0,65,0.00,,,-99.99,,2013-03-03 13:32:00,
2013-03-03 06:42:00,29.0,17.0,-100.00,SW,225,12.0,22.0,62,0.00,,,-99.99,,2013-03-03 13:42:00,
2013-03-03 06:51:00,28.0,18.0,-100.00,SW,220,14.0,21.0,63,0.00,,,-99.99,,2013-03-03 13:51:00,
2013-03-03 07:02:00,28.0,18.0,-100.00,SW,225,14.0,21.0,64,0.00,,,-99.99,,2013-03-03 14:02:00,
2013-03-03 07:11:00,28.0,18.0,-100.00,SSW,210,11.0,20.0,64,0.00,,,-99.99,,2013-03-03 14:11:00,
2013-03-03 07:21:00,29.0,19.0,-100.00,SW,215,11.0,20.0,64,0.00,,,-99.99,,2013-03-03 14:21:00,
2013-03-03 07:32:00,29.0,18.0,-100.00,SW,235,12.0,20.0,64,0.00,,,-99.99,,2013-03-03 14:32:00,
2013-03-03 07:42:00,29.0,18.0,-100.00,SSW,205,11.0,21.0,64,0.00,,,-99.99,,2013-03-03 14:42:00,
2013-03-03 07:52:00,29.0,19.0,-100.00,SW,215,13.0,20.0,63,0.00,,,-99.99,,2013-03-03 14:52:00,
2013-03-03 08:01:00,30.0,19.0,-100.00,SSW,205,15.0,20.0,63,0.00,,,-99.99,,2013-03-03 15:01:00,
2013-03-03 08:11:00,31.0,19.0,-100.00,SW,220,13.0,22.0,62,0.00,,,-99.99,,2013-03-03 15:11:00,
2013-03-03 08:22:00,31.0,19.0,-100.00,SW,220,16.0,25.0,61,0.00,,,-99.99,,2013-03-03 15:22:00,
2013-03-03 08:32:00,31.0,19.0,-100.00,SSW,210,12.0,25.0,60,0.00,,,-99.99,,2013-03-03 15:32:00,
2013-03-03 08:42:00,31.0,19.0,-100.00,SSW,205,11.0,23.0,60,0.00,,,-99.99,,2013-03-03 15:42:00,
2013-03-03 08:52:00,32.0,19.0,-100.00,SW,225,11.0,21.0,58,0.00,,,-99.99,,2013-03-03 15:52:00,
2013-03-03 09:01:00,33.0,19.0,-100.00,SW,225,16.0,27.0,57,0.00,,,-99.99,,2013-03-03 16:01:00,
2013-03-03 09:12:00,33.0,20.0,-100.00,SSW,205,10.0,25.0,58,0.00,,,-99.99,,2013-03-03 16:12:00,
2013-03-03 09:21:00,33.0,20.0,-100.00,SSW,210,13.0,20.0,56,0.00,,,-99.99,,2013-03-03 16:21:00,
2013-03-03 09:32:00,34.0,20.0,-100.00,SSW,200,13.0,24.0,55,0.00,,,-99.99,,2013-03-03 16:32:00,
2013-03-03 09:42:00,34.0,19.0,-100.00,SW,220,17.0,26.0,55,0.00,,,-99.99,,2013-03-03 16:42:00,
2013-03-03 09:52:00,35.0,20.0,-100.00,SW,220,12.0,25.0,53,0.00,,,-99.99,,2013-03-03 16:52:00,
2013-03-03 10:01:00,35.0,19.0,-100.00,SW,220,17.0,24.0,52,0.00,,,-99.99,,2013-03-03 17:01:00,
2013-03-03 10:11:00,35.0,19.0,-100.00,SW,225,15.0,24.0,51,0.00,,,-99.99,,2013-03-03 17:11:00,
2013-03-03 10:22:00,35.0,19.0,-100.00,SSW,210,12.0,25.0,51,0.00,,,-99.99,,2013-03-03 17:22:00,
2013-03-03 10:32:00,36.0,20.0,-100.00,SSW,210,8.0,21.0,51,0.00,,,-99.99,,2013-03-03 17:32:00,
2013-03-03 10:42:00,37.0,20.0,-100.00,SSW,205,9.0,21.0,51,0.00,,,-99.99,,2013-03-03 17:42:00,
2013-03-03 10:52:00,36.0,20.0,-100.00,South,175,7.0,18.0,51,0.00,,,-99.99,,2013-03-03 17:52:00,
2013-03-03 11:01:00,37.0,20.0,-100.00,SSW,200,9.0,21.0,51,0.00,,,-99.99,,2013-03-03 18:01:00,
2013-03-03 11:11:00,37.0,20.0,-100.00,SSW,200,7.0,20.0,50,0.00,,,-99.99,,2013-03-03 18:11:00,
2013-03-03 11:21:00,38.0,21.0,-100.00,South,175,6.0,17.0,49,0.00,,,-99.99,,2013-03-03 18:21:00,
2013-03-03 11:32:00,38.0,20.0,-100.00,SE,145,6.0,16.0,48,0.00,,,-99.99,,2013-03-03 18:32:00,
2013-03-03 11:42:00,38.0,20.0,-100.00,East,85,4.0,15.0,49,0.00,,,-99.99,,2013-03-03 18:42:00,
2013-03-03 11:52:00,38.0,20.0,-100.00,SSE,155,7.0,18.0,49,0.00,,,-99.99,,2013-03-03 18:52:00,
2013-03-03 12:02:00,37.0,20.0,-100.00,SSW,195,10.0,19.0,50,0.00,,,-99.99,,2013-03-03 19:02:00,
2013-03-03 12:11:00,37.0,20.0,-100.00,South,170,6.0,22.0,50,0.00,,,-99.99,,2013-03-03 19:11:00,
2013-03-03 12:21:00,34.0,19.0,-100.00,SW,230,12.0,21.0,52,0.00,,,-99.99,,2013-03-03 19:21:00,
2013-03-03 12:32:00,34.0,19.0,-100.00,SW,220,11.0,21.0,53,0.00,,,-99.99,,2013-03-03 19:32:00,
2013-03-03 12:42:00,35.0,20.0,-100.00,SW,215,12.0,24.0,53,0.00,,,-99.99,,2013-03-03 19:42:00,
2013-03-03 12:51:00,37.0,22.0,-100.00,SW,220,11.0,25.0,54,0.00,,,-99.99,,2013-03-03 19:51:00,
2013-03-03 13:01:00,37.0,22.0,-100.00,SW,220,14.0,22.0,53,0.00,,,-99.99,,2013-03-03 20:01:00,
2013-03-03 13:11:00,36.0,21.0,-100.00,SSW,205,11.0,25.0,54,0.00,,,-99.99,,2013-03-03 20:11:00,
2013-03-03 13:21:00,38.0,22.0,-100.00,SSW,200,9.0,20.0,52,0.00,,,-99.99,,2013-03-03 20:21:00,
2013-03-03 13:32:00,36.0,21.0,-100.00,SSW,210,6.0,19.0,55,0.00,,,-99.99,,2013-03-03 20:32:00,
2013-03-03 13:42:00,36.0,21.0,-100.00,SSW,210,7.0,19.0,55,0.00,,,-99.99,,2013-03-03 20:42:00,
2013-03-03 13:52:00,34.0,20.0,-100.00,SSW,200,11.0,22.0,56,0.00,,,-99.99,,2013-03-03 20:52:00,
2013-03-03 14:02:00,34.0,20.0,-100.00,SW,215,9.0,19.0,56,0.00,,,-99.99,,2013-03-03 21:02:00,
2013-03-03 14:11:00,33.0,20.0,-100.00,SSW,195,11.0,24.0,57,0.00,,,-99.99,,2013-03-03 21:11:00,
2013-03-03 14:21:00,33.0,20.0,-100.00,SW,220,12.0,24.0,57,0.00,,,-99.99,,2013-03-03 21:21:00,
2013-03-03 14:32:00,33.0,20.0,-100.00,SW,220,7.0,19.0,57,0.00,,,-99.99,,2013-03-03 21:32:00,
2013-03-03 14:42:00,32.0,19.0,-100.00,SSW,210,16.0,23.0,57,0.00,,,-99.99,,2013-03-03 21:42:00,
2013-03-03 14:52:00,31.0,19.0,-100.00,SSW,205,14.0,26.0,58,0.00,,,-99.99,,2013-03-03 21:52:00,
2013-03-03 15:01:00,31.0,19.0,-100.00,SW,230,13.0,24.0,58,0.00,,,-99.99,,2013-03-03 22:01:00,
2013-03-03 15:11:00,32.0,19.0,-100.00,SSW,200,12.0,26.0,58,0.00,,,-99.99,,2013-03-03 22:11:00,
2013-03-03 15:22:00,32.0,19.0,-100.00,SSW,210,11.0,21.0,58,0.00,,,-99.99,,2013-03-03 22:22:00,
2013-03-03 15:32:00,31.0,18.0,-100.00,SSW,210,15.0,25.0,59,0.00,,,-99.99,,2013-03-03 22:32:00,
2013-03-03 15:42:00,31.0,18.0,-100.00,SW,215,14.0,22.0,59,0.00,,,-99.99,,2013-03-03 22:42:00,
2013-03-03 15:52:00,31.0,18.0,-100.00,SSW,195,11.0,21.0,59,0.00,,,-99.99,,2013-03-03 22:52:00,
2013-03-03 16:01:00,31.0,18.0,-100.00,SSW,210,12.0,21.0,59,0.00,,,-99.99,,2013-03-03 23:01:00,
2013-03-03 16:11:00,31.0,18.0,-100.00,SW,225,10.0,21.0,59,0.00,,,-99.99,,2013-03-03 23:11:00,
2013-03-03 16:21:00,30.0,18.0,-100.00,SW,225,13.0,21.0,60,0.00,,,-99.99,,2013-03-03 23:21:00,
2013-03-03 16:32:00,30.0,18.0,-100.00,South,190,9.0,21.0,60,0.00,,,-99.99,,2013-03-03 23:32:00,
2013-03-03 16:42:00,29.0,19.0,-100.00,SW,220,13.0,20.0,62,0.10,,,-99.99,,2013-03-03 23:42:00,
2013-03-03 16:52:00,29.0,18.0,-100.00,SW,220,10.0,19.0,62,0.00,,,-99.99,,2013-03-03 23:52:00,
2013-03-03 17:01:00,29.0,18.0,-100.00,SW,225,11.0,19.0,62,0.00,,,-99.99,,2013-03-04 00:01:00,
2013-03-03 17:11:00,29.0,18.0,-100.00,WSW,240,15.0,29.0,62,0.00,,,-99.99,,2013-03-04 00:11:00,
2013-03-03 17:21:00,29.0,18.0,-100.00,SSW,200,7.0,18.0,62,0.00,,,-99.99,,2013-03-04 00:21:00,
2013-03-03 17:32:00,29.0,18.0,-100.00,SW,225,10.0,22.0,62,0.00,,,-99.99,,2013-03-04 00:32:00,
2013-03-03 17:42:00,29.0,18.0,-100.00,SW,220,17.0,25.0,62,0.00,,,-99.99,,2013-03-04 00:42:00,
2013-03-03 17:52:00,28.0,18.0,-100.00,WSW,245,12.0,23.0,64,0.00,,,-99.99,,2013-03-04 00:52:00,
2013-03-03 18:01:00,28.0,18.0,-100.00,SSW,210,11.0,25.0,64,0.00,,,-99.99,,2013-03-04 01:01:00,
2013-03-03 18:11:00,28.0,18.0,-100.00,SSW,205,11.0,22.0,65,0.00,,,-99.99,,2013-03-04 01:11:00,
2013-03-03 18:21:00,28.0,18.0,-100.00,SSW,205,12.0,20.0,65,0.00,,,-99.99,,2013-03-04 01:21:00,
2013-03-03 18:32:00,28.0,18.0,-100.00,SW,230,12.0,23.0,66,0.00,,,-99.99,,2013-03-04 01:32:00,
2013-03-03 18:42:00,28.0,18.0,-100.00,SW,225,11.0,17.0,66,0.10,,,-99.99,,2013-03-04 01:42:00,
2013-03-03 18:51:00,28.0,18.0,-100.00,SSW,210,9.0,16.0,66,0.00,,,-99.99,,2013-03-04 01:51:00,
2013-03-03 19:01:00,27.0,18.0,-100.00,SSW,210,13.0,19.0,66,0.00,,,-99.99,,2013-03-04 02:01:00,
2013-03-03 19:11:00,27.0,18.0,-100.00,SW,230,12.0,21.0,69,0.30,,,-99.99,,2013-03-04 02:11:00,
2013-03-03 19:22:00,26.0,19.0,-100.00,SSW,205,9.0,17.0,73,0.30,,,-99.99,,2013-03-04 02:22:00,
2013-03-03 19:32:00,27.0,19.0,-100.00,SW,220,10.0,16.0,73,0.00,,,-99.99,,2013-03-04 02:32:00,
2013-03-03 19:42:00,27.0,19.0,-100.00,SW,230,7.0,16.0,73,0.00,,,-99.99,,2013-03-04 02:42:00,
2013-03-03 19:52:00,27.0,19.0,-100.00,SSW,210,6.0,10.0,74,0.00,,,-99.99,,2013-03-04 02:52:00,
2013-03-03 20:01:00,27.0,20.0,-100.00,SSW,210,6.0,9.0,74,0.00,,,-99.99,,2013-03-04 03:01:00,
2013-03-03 20:11:00,27.0,20.0,-100.00,SW,215,7.0,10.0,76,0.00,,,-99.99,,2013-03-04 03:11:00,
2013-03-03 20:21:00,27.0,20.0,-100.00,SW,220,10.0,16.0,75,0.00,,,-99.99,,2013-03-04 03:21:00,
2013-03-03 20:32:00,27.0,20.0,-100.00,SSW,210,9.0,16.0,75,0.00,,,-99.99,,2013-03-04 03:32:00,
2013-03-03 20:42:00,27.0,20.0,-100.00,SW,215,7.0,14.0,75,0.10,,,-99.99,,2013-03-04 03:42:00,
2013-03-03 20:52:00,27.0,20.0,-100.00,SW,215,6.0,13.0,76,0.10,,,-99.99,,2013-03-04 03:52:00,
2013-03-03 21:01:00,27.0,20.0,-100.00,South,185,11.0,17.0,77,0.10,,,-99.99,,2013-03-04 04:01:00,
2013-03-03 21:11:00,26.0,21.0,-100.00,SW,220,10.0,13.0,79,0.60,,,-99.99,,2013-03-04 04:11:00,
2013-03-03 21:22:00,26.0,21.0,-100.00,SW,215,8.0,17.0,80,0.00,,,-99.99,,2013-03-04 04:22:00,
2013-03-03 21:32:00,26.0,21.0,-100.00,SSW,210,9.0,16.0,80,0.00,,,-99.99,,2013-03-04 04:32:00,
2013-03-03 21:42:00,26.0,21.0,-100.00,SSW,205,10.0,13.0,79,0.00,,,-99.99,,2013-03-04 04:42:00,
2013-03-03 21:51:00,27.0,21.0,-100.00,SW,235,11.0,14.0,78,0.00,,,-99.99,,2013-03-04 04:51:00,
2013-03-03 22:01:00,27.0,21.0,-100.00,SW,230,8.0,13.0,77,0.00,,,-99.99,,2013-03-04 05:01:00,
2013-03-03 22:11:00,27.0,21.0,-100.00,SW,220,10.0,13.0,77,0.00,,,-99.99,,2013-03-04 05:11:00,
2013-03-03 22:22:00,27.0,21.0,-100.00,SW,220,9.0,16.0,76,0.00,,,-99.99,,2013-03-04 05:22:00,
2013-03-03 22:31:00,27.0,21.0,-100.00,SSW,200,6.0,16.0,77,0.10,,,-99.99,,2013-03-04 05:31:00,
2013-03-03 22:42:00,27.0,21.0,-100.00,SW,220,7.0,12.0,79,0.00,,,-99.99,,2013-03-04 05:42:00,
2013-03-03 22:52:00,27.0,21.0,-100.00,SW,215,5.0,12.0,78,0.00,,,-99.99,,2013-03-04 05:52:00,
2013-03-03 23:01:00,27.0,21.0,-100.00,SW,215,7.0,12.0,78,0.00,,,-99.99,,2013-03-04 06:01:00,
2013-03-03 23:11:00,27.0,21.0,-100.00,SSW,210,10.0,14.0,78,0.00,,,-99.99,,2013-03-04 06:11:00,
2013-03-03 23:21:00,27.0,21.0,-100.00,South,185,9.0,17.0,79,0.00,,,-99.99,,2013-03-04 06:21:00,
2013-03-03 23:32:00,26.0,21.0,-100.00,SW,225,9.0,17.0,79,0.00,,,-99.99,,2013-03-04 06:32:00,
2013-03-03 23:42:00,27.0,21.0,-100.00,SW,215,8.0,16.0,79,0.00,,,-99.99,,2013-03-04 06:42:00,
2013-03-03 23:51:00,26.0,21.0,-100.00,SW,235,12.0,20.0,81,0.50,,,-99.99,,2013-03-04 06:51:00,